createdAt,value
2023-04-04T00:00:19.539Z,72
2023-04-04T00:00:47.471Z,73
2023-04-04T00:01:18.838Z,73
2023-04-04T00:01:50.791Z,72
2023-04-04T00:02:20.550Z,72
2023-04-04T00:02:51.672Z,72
2023-04-04T00:03:22.946Z,73
2023-04-04T00:03:53.882Z,73
2023-04-04T00:04:24.418Z,73
2023-04-04T00:04:55.706Z,73
2023-04-04T00:05:26.581Z,73
2023-04-04T00:05:57.452Z,73
2023-04-04T00:06:28.394Z,73
2023-04-04T00:07:00.395Z,73
2023-04-04T00:07:30.511Z,74
2023-04-04T00:08:01.336Z,73
2023-04-04T00:08:32.708Z,74
2023-04-04T00:09:03.337Z,73
2023-04-04T00:09:34.436Z,73
2023-04-04T00:10:05.439Z,73
2023-04-04T00:10:36.493Z,74
2023-04-04T00:11:07.837Z,74
2023-04-04T00:11:38.539Z,73
2023-04-04T00:12:10.320Z,74
2023-04-04T00:12:40.334Z,73
2023-04-04T00:13:11.331Z,73
2023-04-04T00:13:42.438Z,73
2023-04-04T00:14:13.465Z,73
2023-04-04T00:14:44.445Z,73
2023-04-04T00:15:18.213Z,73
2023-04-04T00:15:46.727Z,73
2023-04-04T00:16:25.420Z,73
2023-04-04T00:16:48.783Z,73
2023-04-04T00:17:20.490Z,74
2023-04-04T00:17:51.131Z,74
2023-04-04T00:18:21.919Z,74
2023-04-04T00:18:52.566Z,74
2023-04-04T00:19:23.450Z,74
2023-04-04T00:19:54.314Z,74
2023-04-04T00:20:25.537Z,74
2023-04-04T00:20:56.397Z,74
2023-04-04T00:21:27.819Z,73
2023-04-04T00:21:58.471Z,74
2023-04-04T00:22:30.285Z,74
2023-04-04T00:23:00.175Z,74
2023-04-04T00:23:31.616Z,74
2023-04-04T00:24:02.494Z,74
2023-04-04T00:24:33.270Z,74
2023-04-04T00:25:04.301Z,74
2023-04-04T00:25:35.636Z,74
2023-04-04T00:26:06.482Z,74
2023-04-04T00:26:37.310Z,73
2023-04-04T00:27:08.346Z,73
2023-04-04T00:27:40.572Z,74
2023-04-04T00:28:10.383Z,74
2023-04-04T00:28:41.287Z,74
2023-04-04T00:29:12.841Z,74
2023-04-04T00:29:43.553Z,74
2023-04-04T00:30:18.247Z,74
2023-04-04T00:30:45.364Z,74
2023-04-04T00:31:16.715Z,74
2023-04-04T00:31:47.450Z,74
2023-04-04T00:32:19.071Z,75
2023-04-04T00:32:50.839Z,75
2023-04-04T00:33:20.690Z,75
2023-04-04T00:33:51.577Z,75
2023-04-04T00:34:22.731Z,75
2023-04-04T00:34:53.910Z,75
2023-04-04T00:35:24.876Z,74
2023-04-04T00:35:55.606Z,74
2023-04-04T00:36:26.547Z,74
2023-04-04T00:36:57.524Z,74
2023-04-04T00:37:28.677Z,74
2023-04-04T00:38:01.075Z,74
2023-04-04T00:38:30.505Z,75
2023-04-04T00:39:01.582Z,74
2023-04-04T00:39:32.561Z,74
2023-04-04T00:40:03.508Z,75
2023-04-04T00:44:04.181Z,75
2023-04-04T00:44:42.396Z,74
2023-04-04T00:45:16.520Z,74
2023-04-04T00:45:45.142Z,74
2023-04-04T00:46:15.902Z,74
2023-04-04T00:46:46.738Z,74
2023-04-04T00:47:17.622Z,74
2023-04-04T00:47:48.601Z,74
2023-04-04T00:48:21.796Z,74
2023-04-04T00:48:50.933Z,74
2023-04-04T00:49:21.625Z,74
2023-04-04T00:49:52.918Z,74
2023-04-04T00:50:23.666Z,74
2023-04-04T00:50:54.907Z,74
2023-04-04T00:51:25.682Z,74
2023-04-04T00:51:56.507Z,74
2023-04-04T00:52:27.841Z,74
2023-04-04T00:52:58.712Z,74
2023-04-04T00:53:30.864Z,74
2023-04-04T00:54:00.357Z,74
2023-04-04T00:54:31.329Z,74
2023-04-04T00:55:02.607Z,74
2023-04-04T00:55:33.699Z,74
2023-04-04T00:56:04.664Z,74
2023-04-04T00:56:36.024Z,74
2023-04-04T00:57:08.745Z,74
2023-04-04T00:57:38.174Z,74
2023-04-04T00:58:09.877Z,74
2023-04-04T00:58:40.891Z,74
2023-04-04T00:59:11.055Z,73
2023-04-04T00:59:41.691Z,74
2023-04-04T01:00:15.668Z,74
2023-04-04T01:00:43.705Z,73
2023-04-04T01:01:17.307Z,73
2023-04-04T01:01:46.314Z,73
2023-04-04T01:02:16.541Z,73
2023-04-04T01:02:47.509Z,73
2023-04-04T01:03:18.997Z,74
2023-04-04T01:03:51.024Z,73
2023-04-04T01:04:20.853Z,73
2023-04-04T01:04:51.782Z,73
2023-04-04T01:05:23.530Z,73
2023-04-04T01:05:53.606Z,73
2023-04-04T01:06:25.050Z,74
2023-04-04T01:06:56.574Z,74
2023-04-04T01:07:26.741Z,73
2023-04-04T01:07:57.741Z,73
2023-04-04T01:08:28.637Z,73
2023-04-04T01:09:00.671Z,73
2023-04-04T01:09:30.858Z,74
2023-04-04T01:10:01.681Z,73
2023-04-04T01:10:32.511Z,74
2023-04-04T01:11:03.794Z,74
2023-04-04T01:11:34.245Z,74
2023-04-04T01:12:17.182Z,73
2023-04-04T01:12:37.357Z,73
2023-04-04T01:13:07.544Z,72
2023-04-04T01:13:38.492Z,72
2023-04-04T01:14:10.863Z,72
2023-04-04T01:14:40.742Z,73
2023-04-04T01:15:14.707Z,73
2023-04-04T01:15:42.850Z,73
2023-04-04T01:16:13.539Z,73
2023-04-04T01:16:44.790Z,73
2023-04-04T01:17:16.044Z,73
2023-04-04T01:17:47.196Z,73
2023-04-04T01:18:18.238Z,73
2023-04-04T01:18:48.847Z,73
2023-04-04T01:19:20.786Z,73
2023-04-04T01:19:50.951Z,73
2023-04-04T01:20:21.863Z,73
2023-04-04T01:20:52.954Z,73
2023-04-04T01:21:23.589Z,73
2023-04-04T01:21:54.740Z,73
2023-04-04T01:22:25.816Z,73
2023-04-04T01:22:56.889Z,73
2023-04-04T01:23:27.712Z,73
2023-04-04T01:23:59.635Z,73
2023-04-04T01:24:30.905Z,73
2023-04-04T01:25:00.870Z,73
2023-04-04T01:25:32.372Z,73
2023-04-04T01:26:02.826Z,73
2023-04-04T01:26:33.429Z,73
2023-04-04T01:27:04.885Z,73
2023-04-04T01:27:35.763Z,73
2023-04-04T01:28:06.481Z,73
2023-04-04T01:28:37.526Z,73
2023-04-04T01:29:08.811Z,73
2023-04-04T01:29:40.882Z,73
2023-04-04T01:30:13.798Z,73
2023-04-04T01:30:42.108Z,73
2023-04-04T01:31:13.001Z,73
2023-04-04T01:31:43.719Z,73
2023-04-04T01:32:14.907Z,73
2023-04-04T01:32:46.055Z,73
2023-04-04T01:33:16.896Z,73
2023-04-04T01:33:47.555Z,73
2023-04-04T01:34:18.813Z,73
2023-04-04T01:34:50.759Z,73
2023-04-04T01:35:20.620Z,73
2023-04-04T01:35:51.532Z,73
2023-04-04T01:36:22.617Z,73
2023-04-04T01:36:53.783Z,73
2023-04-04T01:37:24.624Z,73
2023-04-04T01:37:56.125Z,73
2023-04-04T01:38:26.925Z,73
2023-04-04T01:38:57.930Z,73
2023-04-04T01:39:28.897Z,73
2023-04-04T01:40:00.733Z,73
2023-04-04T01:40:30.678Z,73
2023-04-04T01:41:01.805Z,72
2023-04-04T01:41:32.821Z,72
2023-04-04T01:42:03.877Z,72
2023-04-04T01:42:34.912Z,73
2023-04-04T01:43:05.505Z,73
2023-04-04T01:43:36.633Z,73
2023-04-04T01:44:07.721Z,73
2023-04-04T01:44:39.164Z,73
2023-04-04T01:45:13.884Z,73
2023-04-04T01:45:40.992Z,73
2023-04-04T01:46:13.072Z,73
2023-04-04T01:46:42.749Z,73
2023-04-04T01:47:13.742Z,73
2023-04-04T01:47:45.008Z,73
2023-04-04T01:48:15.748Z,73
2023-04-04T01:48:46.531Z,73
2023-04-04T01:49:17.958Z,73
2023-04-04T01:49:48.765Z,73
2023-04-04T01:50:20.873Z,73
2023-04-04T01:50:50.896Z,73
2023-04-04T01:51:21.632Z,73
2023-04-04T01:51:52.744Z,73
2023-04-04T01:52:23.658Z,73
2023-04-04T01:52:55.130Z,73
2023-04-04T01:53:25.845Z,73
2023-04-04T01:53:56.811Z,73
2023-04-04T01:54:27.905Z,73
2023-04-04T01:54:59.123Z,73
2023-04-04T01:55:31.411Z,73
2023-04-04T01:56:00.750Z,74
2023-04-04T01:56:31.907Z,73
2023-04-04T01:57:02.772Z,73
2023-04-04T01:57:34.136Z,73
2023-04-04T01:58:04.624Z,73
2023-04-04T01:58:35.654Z,72
2023-04-04T01:59:06.894Z,72
2023-04-04T01:59:37.478Z,72
2023-04-04T02:00:11.363Z,73
2023-04-04T02:00:40.929Z,73
2023-04-04T02:01:12.572Z,73
2023-04-04T02:01:41.914Z,73
2023-04-04T02:02:12.545Z,73
2023-04-04T02:02:44.149Z,74
2023-04-04T02:03:14.827Z,74
2023-04-04T02:03:45.977Z,73
2023-04-04T02:04:16.722Z,73
2023-04-04T02:04:47.853Z,73
2023-04-04T02:05:19.032Z,74
2023-04-04T02:05:50.592Z,74
2023-04-04T02:06:20.704Z,74
2023-04-04T02:06:52.098Z,74
2023-04-04T02:07:22.966Z,74
2023-04-04T02:07:53.661Z,73
2023-04-04T02:08:24.557Z,73
2023-04-04T02:08:55.949Z,74
2023-04-04T02:09:27.013Z,74
2023-04-04T02:09:58.096Z,73
2023-04-04T02:10:28.533Z,73
2023-04-04T02:11:00.636Z,73
2023-04-04T02:11:31.435Z,74
2023-04-04T02:12:01.875Z,73
2023-04-04T02:12:32.605Z,73
2023-04-04T02:13:03.526Z,73
2023-04-04T02:13:34.367Z,73
2023-04-04T02:14:05.592Z,73
2023-04-04T02:14:36.843Z,74
2023-04-04T02:15:12.213Z,74
2023-04-04T02:15:38.610Z,74
2023-04-04T02:16:10.733Z,74
2023-04-04T02:16:40.537Z,73
2023-04-04T02:17:11.569Z,73
2023-04-04T02:17:43.141Z,73
2023-04-04T02:18:13.430Z,73
2023-04-04T02:18:44.488Z,73
2023-04-04T02:19:15.671Z,73
2023-04-04T02:19:46.619Z,73
2023-04-04T02:20:17.612Z,73
2023-04-04T02:20:48.853Z,73
2023-04-04T02:21:20.903Z,73
2023-04-04T02:21:50.873Z,73
2023-04-04T02:22:21.645Z,73
2023-04-04T02:22:52.918Z,74
2023-04-04T02:23:23.642Z,73
2023-04-04T02:23:54.793Z,74
2023-04-04T02:24:25.880Z,73
2023-04-04T02:24:56.659Z,74
2023-04-04T02:25:28.185Z,74
2023-04-04T02:25:58.849Z,73
2023-04-04T02:26:30.852Z,73
2023-04-04T02:27:01.023Z,73
2023-04-04T02:27:31.883Z,73
2023-04-04T02:28:02.701Z,73
2023-04-04T02:28:33.922Z,73
2023-04-04T02:29:06.391Z,73
2023-04-04T02:29:35.825Z,74
2023-04-04T02:30:09.531Z,74
2023-04-04T02:30:37.818Z,74
2023-04-04T02:31:09.010Z,74
2023-04-04T02:31:40.795Z,74
2023-04-04T02:32:11.273Z,73
2023-04-04T02:32:41.984Z,73
2023-04-04T02:33:12.612Z,74
2023-04-04T02:33:44.084Z,74
2023-04-04T02:34:14.997Z,74
2023-04-04T02:34:45.624Z,74
2023-04-04T02:35:16.562Z,74
2023-04-04T02:35:47.576Z,73
2023-04-04T02:36:18.811Z,73
2023-04-04T02:36:50.932Z,73
2023-04-04T02:37:20.560Z,74
2023-04-04T02:37:52.114Z,74
2023-04-04T02:38:22.885Z,74
2023-04-04T02:38:53.827Z,74
2023-04-04T02:39:24.403Z,74
2023-04-04T02:39:56.005Z,74
2023-04-04T02:40:26.585Z,74
2023-04-04T02:40:57.794Z,74
2023-04-04T02:41:28.684Z,74
2023-04-04T02:42:00.993Z,74
2023-04-04T02:42:30.714Z,74
2023-04-04T02:43:01.586Z,74
2023-04-04T02:43:32.536Z,74
2023-04-04T02:44:03.761Z,74
2023-04-04T02:44:34.700Z,73
2023-04-04T02:45:08.935Z,74
2023-04-04T02:45:36.628Z,74
2023-04-04T02:46:18.341Z,74
2023-04-04T02:46:38.809Z,73
2023-04-04T02:47:11.397Z,73
2023-04-04T02:47:40.531Z,74
2023-04-04T02:48:11.955Z,74
2023-04-04T02:48:42.641Z,74
2023-04-04T02:49:13.621Z,74
2023-04-04T02:49:44.976Z,74
2023-04-04T02:50:15.934Z,74
2023-04-04T02:50:46.744Z,74
2023-04-04T02:51:19.219Z,74
2023-04-04T02:51:48.544Z,74
2023-04-04T02:52:20.693Z,74
2023-04-04T02:52:50.735Z,74
2023-04-04T02:53:21.950Z,74
2023-04-04T02:53:52.780Z,74
2023-04-04T02:54:23.459Z,74
2023-04-04T02:54:54.881Z,74
2023-04-04T02:55:25.845Z,74
2023-04-04T02:55:57.353Z,74
2023-04-04T02:56:27.660Z,74
2023-04-04T02:56:58.621Z,74
2023-04-04T02:57:30.682Z,74
2023-04-04T02:58:01.044Z,75
2023-04-04T02:58:31.883Z,74
2023-04-04T02:59:02.608Z,74
2023-04-04T02:59:33.617Z,74
2023-04-04T03:00:07.699Z,74
2023-04-04T03:00:35.790Z,74
2023-04-04T03:01:06.899Z,75
2023-04-04T03:01:38.105Z,74
2023-04-04T03:02:09.945Z,74
2023-04-04T03:02:41.077Z,75
2023-04-04T03:03:11.144Z,75
2023-04-04T03:03:41.899Z,75
2023-04-04T03:04:13.757Z,75
2023-04-04T03:04:43.688Z,75
2023-04-04T03:05:15.215Z,75
2023-04-04T03:05:45.895Z,75
2023-04-04T03:06:17.281Z,75
2023-04-04T03:06:47.535Z,75
2023-04-04T03:07:19.766Z,75
2023-04-04T03:07:51.105Z,75
2023-04-04T03:08:20.593Z,75
2023-04-04T03:08:51.817Z,75
2023-04-04T03:09:22.382Z,75
2023-04-04T03:09:53.880Z,75
2023-04-04T03:10:24.797Z,75
2023-04-04T03:10:55.674Z,75
2023-04-04T03:11:26.432Z,75
2023-04-04T03:11:57.841Z,75
2023-04-04T03:12:28.687Z,75
2023-04-04T03:13:00.965Z,75
2023-04-04T03:13:31.142Z,75
2023-04-04T03:14:02.074Z,75
2023-04-04T03:14:32.671Z,75
2023-04-04T03:15:06.865Z,75
2023-04-04T03:15:34.355Z,75
2023-04-04T03:16:05.711Z,76
2023-04-04T03:16:36.801Z,76
2023-04-04T03:17:07.763Z,76
2023-04-04T03:17:40.124Z,76
2023-04-04T03:18:10.574Z,76
2023-04-04T03:18:40.680Z,76
2023-04-04T03:19:11.722Z,76
2023-04-04T03:19:42.739Z,76
2023-04-04T03:20:13.834Z,76
2023-04-04T03:20:44.932Z,76
2023-04-04T03:21:16.021Z,76
2023-04-04T03:21:47.119Z,76
2023-04-04T03:22:18.005Z,76
2023-04-04T03:22:49.015Z,76
2023-04-04T03:23:20.664Z,76
2023-04-04T03:23:50.822Z,76
2023-04-04T03:24:21.970Z,76
2023-04-04T03:24:52.941Z,76
2023-04-04T03:25:23.471Z,76
2023-04-04T03:25:54.848Z,76
2023-04-04T03:26:26.083Z,76
2023-04-04T03:26:56.615Z,76
2023-04-04T03:27:28.661Z,76
2023-04-04T03:27:59.195Z,76
2023-04-04T03:28:31.149Z,76
2023-04-04T03:29:01.225Z,76
2023-04-04T03:29:31.775Z,76
2023-04-04T03:30:05.678Z,76
2023-04-04T03:30:33.885Z,76
2023-04-04T03:31:05.149Z,76
2023-04-04T03:34:10.980Z,76
2023-04-04T03:34:41.771Z,76
2023-04-04T03:35:13.152Z,76
2023-04-04T03:35:43.816Z,76
2023-04-04T03:36:15.244Z,76
2023-04-04T03:36:45.698Z,76
2023-04-04T03:37:16.426Z,76
2023-04-04T03:37:47.748Z,77
2023-04-04T03:38:18.711Z,77
2023-04-04T03:38:50.477Z,77
2023-04-04T03:39:20.464Z,77
2023-04-04T03:39:51.738Z,77
2023-04-04T03:40:22.810Z,77
2023-04-04T03:40:54.015Z,77
2023-04-04T03:41:24.766Z,77
2023-04-04T03:41:58.424Z,77
2023-04-04T03:42:26.720Z,77
2023-04-04T03:42:57.553Z,77
2023-04-04T03:43:29.026Z,77
2023-04-04T03:44:01.377Z,77
2023-04-04T03:44:31.113Z,77
2023-04-04T03:45:04.490Z,77
2023-04-04T03:45:32.932Z,77
2023-04-04T03:46:03.780Z,77
2023-04-04T03:46:35.930Z,77
2023-04-04T03:47:06.922Z,77
2023-04-04T03:47:36.896Z,77
2023-04-04T03:48:09.930Z,77
2023-04-04T03:48:38.728Z,77
2023-04-04T03:49:10.694Z,77
2023-04-04T03:49:40.539Z,77
2023-04-04T03:50:12.092Z,77
2023-04-04T03:50:42.986Z,77
2023-04-04T03:51:14.028Z,77
2023-04-04T03:51:45.167Z,78
2023-04-04T03:52:15.462Z,78
2023-04-04T03:52:46.644Z,78
2023-04-04T03:53:17.823Z,78
2023-04-04T03:53:48.735Z,78
2023-04-04T03:54:20.700Z,78
2023-04-04T03:54:50.576Z,78
2023-04-04T03:55:22.010Z,79
2023-04-04T03:55:52.939Z,79
2023-04-04T03:56:23.749Z,79
2023-04-04T03:56:54.486Z,79
2023-04-04T03:57:25.989Z,79
2023-04-04T03:57:56.894Z,79
2023-04-04T03:58:27.805Z,79
2023-04-04T03:58:58.705Z,79
2023-04-04T03:59:31.450Z,79
2023-04-04T04:00:03.719Z,79
2023-04-04T04:00:31.563Z,80
2023-04-04T04:01:02.774Z,80
2023-04-04T04:01:33.990Z,80
2023-04-04T04:02:04.833Z,80
2023-04-04T04:02:35.942Z,80
2023-04-04T04:03:07.211Z,80
2023-04-04T04:03:38.076Z,80
2023-04-04T04:04:08.830Z,79
2023-04-04T04:04:41.007Z,79
2023-04-04T04:05:10.552Z,79
2023-04-04T04:05:41.820Z,79
2023-04-04T04:06:12.900Z,79
2023-04-04T04:06:43.445Z,79
2023-04-04T04:07:14.549Z,79
2023-04-04T04:07:46.457Z,79
2023-04-04T04:08:16.976Z,79
2023-04-04T04:08:47.458Z,80
2023-04-04T04:09:19.574Z,80
2023-04-04T04:09:50.929Z,79
2023-04-04T04:10:20.992Z,80
2023-04-04T04:10:51.464Z,80
2023-04-04T04:11:22.449Z,80
2023-04-04T04:11:53.392Z,80
2023-04-04T04:12:24.553Z,80
2023-04-04T04:12:56.095Z,80
2023-04-04T04:13:26.689Z,80
2023-04-04T04:13:57.742Z,81
2023-04-04T04:14:28.511Z,81
2023-04-04T04:15:03.792Z,81
2023-04-04T04:15:30.895Z,81
2023-04-04T04:16:01.935Z,81
2023-04-04T04:16:33.156Z,81
2023-04-04T04:17:03.573Z,81
2023-04-04T04:17:34.658Z,81
2023-04-04T04:18:05.937Z,82
2023-04-04T04:18:36.703Z,81
2023-04-04T04:19:07.905Z,81
2023-04-04T04:19:38.935Z,81
2023-04-04T04:20:10.326Z,81
2023-04-04T04:20:41.111Z,81
2023-04-04T04:21:11.983Z,81
2023-04-04T04:21:42.786Z,81
2023-04-04T04:22:13.447Z,81
2023-04-04T04:22:44.415Z,81
2023-04-04T04:23:16.477Z,81
2023-04-04T04:23:46.841Z,80
2023-04-04T04:24:17.410Z,80
2023-04-04T04:24:48.643Z,80
2023-04-04T04:25:22.960Z,80
2023-04-04T04:25:51.674Z,80
2023-04-04T04:26:21.782Z,81
2023-04-04T04:26:52.614Z,81
2023-04-04T04:27:23.975Z,81
2023-04-04T04:27:55.013Z,81
2023-04-04T04:28:34.196Z,81
2023-04-04T04:28:57.505Z,81
2023-04-04T04:29:29.522Z,81
2023-04-04T04:31:35.650Z,81
2023-04-04T04:31:57.761Z,82
2023-04-04T04:32:28.594Z,82
2023-04-04T04:32:59.397Z,82
2023-04-04T04:33:30.762Z,82
2023-04-04T04:34:02.326Z,82
2023-04-04T04:35:16.800Z,83
2023-04-04T04:35:41.426Z,82
2023-04-04T04:36:11.471Z,82
2023-04-04T04:36:42.260Z,82
2023-04-04T04:37:13.249Z,83
2023-04-04T04:37:44.177Z,82
2023-04-04T04:38:15.017Z,82
2023-04-04T04:38:45.750Z,82
2023-04-04T04:39:16.562Z,82
2023-04-04T04:39:47.765Z,82
2023-04-04T04:40:18.964Z,82
2023-04-04T04:40:50.640Z,82
2023-04-04T04:41:20.734Z,82
2023-04-04T04:41:51.598Z,82
2023-04-04T04:42:22.559Z,82
2023-04-04T04:42:53.806Z,82
2023-04-04T04:43:24.761Z,82
2023-04-04T04:43:55.927Z,82
2023-04-04T04:44:26.777Z,82
2023-04-04T04:44:57.665Z,82
2023-04-04T04:45:37.492Z,82
2023-04-04T04:46:01.641Z,82
2023-04-04T04:46:31.037Z,82
2023-04-04T04:47:01.668Z,82
2023-04-04T04:47:32.817Z,82
2023-04-04T04:48:03.649Z,82
2023-04-04T04:48:34.858Z,82
2023-04-04T04:49:06.389Z,82
2023-04-04T04:49:37.418Z,81
2023-04-04T04:50:07.665Z,81
2023-04-04T04:50:38.914Z,81
2023-04-04T04:51:10.857Z,81
2023-04-04T04:51:40.807Z,82
2023-04-04T04:52:11.797Z,82
2023-04-04T04:52:42.931Z,82
2023-04-04T04:53:13.577Z,82
2023-04-04T04:53:44.733Z,82
2023-04-04T04:54:15.802Z,82
2023-04-04T04:54:46.730Z,82
2023-04-04T04:55:18.670Z,82
2023-04-04T04:55:48.915Z,82
2023-04-04T04:56:20.871Z,82
2023-04-04T04:56:51.044Z,82
2023-04-04T04:57:21.960Z,82
2023-04-04T04:57:52.988Z,82
2023-04-04T04:58:24.387Z,82
2023-04-04T04:58:55.339Z,82
2023-04-04T04:59:26.499Z,82
2023-04-04T04:59:57.231Z,82
2023-04-04T05:00:30.841Z,82
2023-04-04T05:00:59.196Z,83
2023-04-04T05:01:31.376Z,83
2023-04-04T05:02:01.213Z,83
2023-04-04T05:02:31.992Z,83
2023-04-04T05:03:03.084Z,83
2023-04-04T05:03:34.226Z,83
2023-04-04T05:04:05.043Z,83
2023-04-04T05:04:37.845Z,83
2023-04-04T05:05:07.076Z,84
2023-04-04T05:05:37.934Z,84
2023-04-04T05:06:08.908Z,84
2023-04-04T05:06:41.058Z,84
2023-04-04T05:07:10.902Z,84
2023-04-04T05:07:42.116Z,83
2023-04-04T05:08:13.052Z,83
2023-04-04T05:08:44.012Z,83
2023-04-04T05:09:15.204Z,83
2023-04-04T05:09:46.307Z,82
2023-04-04T05:10:16.774Z,82
2023-04-04T05:10:48.000Z,82
2023-04-04T05:11:18.965Z,81
2023-04-04T05:11:51.516Z,81
2023-04-04T05:12:21.635Z,81
2023-04-04T05:12:51.943Z,81
2023-04-04T05:13:23.163Z,81
2023-04-04T05:13:54.188Z,81
2023-04-04T05:14:24.961Z,81
2023-04-04T05:14:56.405Z,81
2023-04-04T05:15:30.189Z,81
2023-04-04T05:15:57.781Z,82
2023-04-04T05:16:28.838Z,82
2023-04-04T05:17:01.110Z,82
2023-04-04T05:17:31.006Z,82
2023-04-04T05:18:02.128Z,82
2023-04-04T05:18:32.937Z,83
2023-04-04T05:19:04.438Z,82
2023-04-04T05:19:35.077Z,82
2023-04-04T05:20:05.785Z,82
2023-04-04T05:20:37.171Z,82
2023-04-04T05:21:07.880Z,82
2023-04-04T05:21:38.865Z,82
2023-04-04T05:22:10.895Z,82
2023-04-04T05:22:40.868Z,82
2023-04-04T05:23:11.912Z,82
2023-04-04T05:23:42.918Z,82
2023-04-04T05:24:14.094Z,82
2023-04-04T05:24:44.882Z,82
2023-04-04T05:25:16.200Z,82
2023-04-04T05:25:46.794Z,82
2023-04-04T05:26:17.896Z,82
2023-04-04T05:26:48.793Z,82
2023-04-04T05:27:20.855Z,82
2023-04-04T05:27:50.936Z,82
2023-04-04T05:28:22.398Z,82
2023-04-04T05:28:52.819Z,82
2023-04-04T05:29:23.978Z,82
2023-04-04T05:29:55.211Z,82
2023-04-04T05:30:28.860Z,81
2023-04-04T05:30:57.501Z,81
2023-04-04T05:31:28.058Z,82
2023-04-04T05:31:59.347Z,82
2023-04-04T05:32:31.238Z,82
2023-04-04T05:33:01.475Z,82
2023-04-04T05:33:31.816Z,82
2023-04-04T05:34:02.920Z,82
2023-04-04T05:34:34.817Z,82
2023-04-04T05:35:04.912Z,82
2023-04-04T05:35:36.093Z,82
2023-04-04T05:36:06.813Z,82
2023-04-04T05:36:38.096Z,82
2023-04-04T05:37:09.061Z,82
2023-04-04T05:37:41.030Z,82
2023-04-04T05:38:11.087Z,82
2023-04-04T05:38:41.994Z,82
2023-04-04T05:39:13.010Z,82
2023-04-04T05:39:43.991Z,82
2023-04-04T05:40:15.037Z,82
2023-04-04T05:40:46.984Z,82
2023-04-04T05:41:16.657Z,82
2023-04-04T05:41:48.060Z,82
2023-04-04T05:42:18.982Z,82
2023-04-04T05:42:51.364Z,82
2023-04-04T05:43:20.970Z,82
2023-04-04T05:43:51.876Z,82
2023-04-04T05:44:22.971Z,82
2023-04-04T05:44:53.642Z,82
2023-04-04T05:45:27.510Z,82
2023-04-04T05:45:56.051Z,82
2023-04-04T05:46:27.180Z,82
2023-04-04T05:46:59.428Z,82
2023-04-04T05:47:28.709Z,82
2023-04-04T05:48:01.132Z,82
2023-04-04T05:48:30.755Z,82
2023-04-04T05:49:01.803Z,81
2023-04-04T05:49:32.984Z,82
2023-04-04T05:50:03.818Z,82
2023-04-04T05:50:35.356Z,82
2023-04-04T05:51:06.114Z,82
2023-04-04T05:51:37.085Z,82
2023-04-04T05:52:07.806Z,82
2023-04-04T05:52:38.834Z,82
2023-04-04T05:53:11.001Z,82
2023-04-04T05:53:41.106Z,82
2023-04-04T05:54:12.024Z,82
2023-04-04T05:54:42.983Z,82
2023-04-04T05:55:13.910Z,82
2023-04-04T05:55:44.892Z,82
2023-04-04T05:56:16.316Z,81
2023-04-04T05:56:47.019Z,81
2023-04-04T05:57:19.762Z,81
2023-04-04T05:57:49.148Z,81
2023-04-04T05:58:21.109Z,81
2023-04-04T05:58:51.124Z,81
2023-04-04T05:59:22.161Z,81
2023-04-04T05:59:53.428Z,81
2023-04-04T06:00:27.006Z,81
2023-04-04T06:00:54.738Z,81
2023-04-04T06:01:26.125Z,81
2023-04-04T06:01:57.159Z,81
2023-04-04T06:02:28.218Z,81
2023-04-04T06:02:59.187Z,81
2023-04-04T06:03:31.260Z,81
2023-04-04T06:04:00.994Z,81
2023-04-04T06:04:32.064Z,81
2023-04-04T06:05:02.792Z,81
2023-04-04T06:05:33.974Z,81
2023-04-04T06:06:04.859Z,81
2023-04-04T06:06:36.108Z,81
2023-04-04T06:07:07.068Z,81
2023-04-04T06:07:38.018Z,81
2023-04-04T06:08:09.009Z,81
2023-04-04T06:08:52.982Z,81
2023-04-04T06:09:10.833Z,81
2023-04-04T06:09:42.061Z,81
2023-04-04T06:10:12.917Z,81
2023-04-04T06:10:43.801Z,81
2023-04-04T06:11:14.819Z,81
2023-04-04T06:11:46.176Z,81
2023-04-04T06:12:17.464Z,81
2023-04-04T06:12:48.063Z,81
2023-04-04T06:13:18.929Z,81
2023-04-04T06:13:50.914Z,80
2023-04-04T06:14:20.922Z,80
2023-04-04T06:14:52.085Z,81
2023-04-04T06:15:25.747Z,80
2023-04-04T06:15:53.845Z,80
2023-04-04T06:16:24.964Z,80
2023-04-04T06:16:56.060Z,80
2023-04-04T06:17:27.259Z,80
2023-04-04T06:17:57.907Z,80
2023-04-04T06:18:28.822Z,80
2023-04-04T06:19:00.782Z,80
2023-04-04T06:19:30.944Z,80
2023-04-04T06:20:01.989Z,80
2023-04-04T06:20:32.766Z,80
2023-04-04T06:21:03.836Z,80
2023-04-04T06:21:34.881Z,80
2023-04-04T06:22:05.995Z,80
2023-04-04T06:22:37.318Z,80
2023-04-04T06:23:08.046Z,80
2023-04-04T06:23:38.806Z,80
2023-04-04T06:24:10.970Z,80
2023-04-04T06:24:41.075Z,80
2023-04-04T06:25:12.108Z,80
2023-04-04T06:25:43.182Z,80
2023-04-04T06:26:13.894Z,80
2023-04-04T06:26:44.959Z,80
2023-04-04T06:27:15.815Z,80
2023-04-04T06:27:46.946Z,80
2023-04-04T06:28:17.920Z,80
2023-04-04T06:28:48.926Z,80
2023-04-04T06:29:22.391Z,80
2023-04-04T06:29:50.839Z,80
2023-04-04T06:30:25.513Z,80
2023-04-04T06:30:53.298Z,80
2023-04-04T06:31:24.425Z,79
2023-04-04T06:31:55.398Z,79
2023-04-04T06:32:25.896Z,79
2023-04-04T06:32:57.228Z,79
2023-04-04T06:33:28.686Z,79
2023-04-04T06:33:59.166Z,79
2023-04-04T06:34:31.164Z,79
2023-04-04T06:35:01.345Z,79
2023-04-04T06:35:31.835Z,79
2023-04-04T06:36:02.900Z,79
2023-04-04T06:36:34.071Z,79
2023-04-04T06:37:04.903Z,79
2023-04-04T06:37:35.763Z,79
2023-04-04T06:38:07.274Z,79
2023-04-04T06:38:38.306Z,79
2023-04-04T06:39:09.166Z,79
2023-04-04T06:39:42.354Z,79
2023-04-04T06:40:11.561Z,78
2023-04-04T06:40:42.194Z,78
2023-04-04T06:41:13.328Z,78
2023-04-04T06:41:44.325Z,78
2023-04-04T06:42:15.113Z,77
2023-04-04T06:42:46.469Z,77
2023-04-04T06:43:17.327Z,77
2023-04-04T06:43:48.256Z,77
2023-04-04T06:44:19.203Z,77
2023-04-04T06:44:51.288Z,76
2023-04-04T06:45:24.223Z,76
2023-04-04T06:45:52.563Z,77
2023-04-04T06:46:23.408Z,77
2023-04-04T06:46:54.321Z,76
2023-04-04T06:47:25.120Z,76
2023-04-04T06:47:56.258Z,76
2023-04-04T06:48:27.297Z,76
2023-04-04T06:48:58.393Z,76
2023-04-04T06:49:29.234Z,76
2023-04-04T06:50:01.475Z,76
2023-04-04T06:50:31.160Z,76
2023-04-04T06:51:02.329Z,76
2023-04-04T06:51:33.375Z,76
2023-04-04T06:52:04.384Z,76
2023-04-04T06:52:38.443Z,76
2023-04-04T06:53:06.552Z,76
2023-04-04T06:53:37.162Z,76
2023-04-04T06:54:07.964Z,76
2023-04-04T06:54:38.887Z,76
2023-04-04T06:55:12.328Z,76
2023-04-04T06:55:41.063Z,76
2023-04-04T06:56:11.798Z,76
2023-04-04T06:56:43.131Z,76
2023-04-04T06:57:13.917Z,76
2023-04-04T06:57:44.860Z,77
2023-04-04T06:58:15.688Z,77
2023-04-04T06:58:46.946Z,77
2023-04-04T06:59:17.842Z,77
2023-04-04T06:59:48.861Z,77
2023-04-04T07:00:24.029Z,77
2023-04-04T07:00:51.202Z,76
2023-04-04T07:01:23.749Z,76
2023-04-04T07:01:54.618Z,77
2023-04-04T07:02:24.027Z,76
2023-04-04T07:02:55.156Z,76
2023-04-04T07:03:26.200Z,76
2023-04-04T07:03:56.987Z,76
2023-04-04T07:04:28.470Z,76
2023-04-04T07:04:59.730Z,75
2023-04-04T07:05:31.011Z,75
2023-04-04T07:06:00.958Z,75
2023-04-04T07:06:32.149Z,75
2023-04-04T07:07:03.039Z,75
2023-04-04T07:07:34.133Z,75
2023-04-04T07:08:05.110Z,75
2023-04-04T07:08:37.078Z,75
2023-04-04T07:09:12.854Z,75
2023-04-04T07:09:39.940Z,74
2023-04-04T07:10:09.730Z,74
2023-04-04T07:10:43.047Z,74
2023-04-04T07:11:12.219Z,73
2023-04-04T07:11:42.164Z,73
2023-04-04T07:12:13.406Z,73
2023-04-04T07:12:44.215Z,73
2023-04-04T07:13:15.316Z,73
2023-04-04T07:13:46.053Z,73
2023-04-04T07:14:17.148Z,73
2023-04-04T07:14:48.345Z,73
2023-04-04T07:15:22.092Z,73
2023-04-04T07:15:51.379Z,73
2023-04-04T07:16:21.734Z,73
2023-04-04T07:16:52.188Z,72
2023-04-04T07:17:25.077Z,71
2023-04-04T07:17:54.553Z,70
2023-04-04T07:18:25.186Z,70
2023-04-04T07:18:56.132Z,71
2023-04-04T07:19:27.302Z,70
2023-04-04T07:19:58.265Z,71
2023-04-04T07:20:29.253Z,71
2023-04-04T07:21:01.013Z,71
2023-04-04T07:21:31.570Z,71
2023-04-04T07:22:02.062Z,72
2023-04-04T07:22:33.047Z,72
2023-04-04T07:23:03.996Z,71
2023-04-04T07:23:35.143Z,71
2023-04-04T07:24:06.380Z,72
2023-04-04T07:24:37.260Z,72
2023-04-04T07:25:08.460Z,72
2023-04-04T07:25:39.355Z,71
2023-04-04T07:26:11.107Z,71
2023-04-04T07:26:41.605Z,70
2023-04-04T07:27:12.696Z,70
2023-04-04T07:27:43.961Z,70
2023-04-04T07:28:14.351Z,70
2023-04-04T07:28:45.344Z,70
2023-04-04T07:29:16.266Z,71
2023-04-04T07:29:47.638Z,71
2023-04-04T07:30:21.306Z,71